Time;durP1;ratioP1;P1;durP2;ratioP2;P2;SDS_P1;SDS_P2;PMS_P1;PMS_P2;Temp;Humidity;BMP_temperature;BMP_pressure;BME280_temperature;BME280_humidity;BME280_pressure;Samples;Min_cycle;Max_cycle;Signal;HPM_P1;HPM_P2
2022/03/16 00:01:51;;;;;;;17.12;8.13;;;;;;;9.87;37.82;99677.47;4470791;32;34410;-72
2022/03/16 00:04:21;;;;;;;17.20;7.95;;;;;;;9.91;37.98;99662.72;4456253;32;32695;-71
2022/03/16 00:06:50;;;;;;;14.52;7.22;;;;;;;9.72;38.61;99674.91;4456996;32;35115;-71
2022/03/16 00:09:20;;;;;;;14.65;8.20;;;;;;;9.51;40.17;99681.84;4469650;32;34447;-71
2022/03/16 00:11:49;;;;;;;14.85;8.02;;;;;;;9.61;39.86;99685.31;4470803;32;34182;-72
2022/03/16 00:14:19;;;;;;;15.65;8.95;;;;;;;9.63;40.13;99678.38;4470308;32;33781;-74
2022/03/16 00:16:48;;;;;;;19.52;8.10;;;;;;;9.60;40.06;99676.66;4474672;32;35056;-71
2022/03/16 00:19:17;;;;;;;16.85;9.07;;;;;;;9.61;40.01;99675.78;4470238;32;35136;-71
2022/03/16 00:21:46;;;;;;;18.58;9.35;;;;;;;9.58;40.61;99678.41;4456763;32;33539;-73
2022/03/16 00:24:18;;;;;;;16.55;9.23;;;;;;;9.75;40.41;99672.28;4470286;32;33909;-71
2022/03/16 00:26:48;;;;;;;18.90;8.55;;;;;;;9.80;41.89;99674.00;4470530;32;34858;-76
2022/03/16 00:29:17;;;;;;;15.73;9.48;;;;;;;9.86;41.04;99668.81;4456372;32;35168;-76
2022/03/16 00:31:46;;;;;;;19.55;10.13;;;;;;;9.70;42.96;99668.84;4456346;32;33756;-76
2022/03/16 00:34:16;;;;;;;22.27;9.88;;;;;;;9.53;43.51;99658.44;4456397;32;34056;-76
2022/03/16 00:36:47;;;;;;;19.50;9.98;;;;;;;9.65;43.91;99663.63;4470307;32;35040;-72
2022/03/16 00:39:16;;;;;;;17.12;10.02;;;;;;;9.75;44.06;99667.09;4445747;32;33828;-72
2022/03/16 00:41:45;;;;;;;21.45;10.40;;;;;;;9.19;47.63;99655.88;4463896;32;33561;-73
2022/03/16 00:44:16;;;;;;;16.15;10.02;;;;;;;9.33;48.92;99664.53;4467432;32;33981;-72
2022/03/16 00:46:45;;;;;;;17.75;10.70;;;;;;;9.49;48.87;99666.28;4456376;32;35134;-75
2022/03/16 00:49:13;;;;;;;15.25;10.50;;;;;;;9.19;53.69;99661.94;4473646;32;34536;-72
2022/03/16 00:51:41;;;;;;;25.08;11.48;;;;;;;9.45;52.86;99653.28;4471813;32;32887;-71
2022/03/16 00:54:11;;;;;;;18.52;10.63;;;;;;;9.44;51.75;99642.03;4457058;32;32759;-73
2022/03/16 00:56:41;;;;;;;20.12;10.88;;;;;;;8.97;54.99;99640.31;4471993;32;35777;-72
2022/03/16 00:59:10;;;;;;;22.67;12.18;;;;;;;9.00;56.16;99624.72;4481879;32;34577;-71
2022/03/16 01:01:39;;;;;;;21.50;11.30;;;;;;;8.77;56.32;99627.31;4470455;32;34558;-72
2022/03/16 01:04:09;;;;;;;18.92;11.48;;;;;;;9.46;54.77;99624.69;4469999;32;33934;-71
2022/03/16 01:06:43;;;;;;;19.98;11.18;;;;;;;9.27;54.25;99629.03;4470163;32;35151;-72
2022/03/16 01:09:14;;;;;;;19.55;11.35;;;;;;;9.11;54.67;99625.59;4469876;32;34585;-75
2022/03/16 01:11:43;;;;;;;21.98;10.88;;;;;;;8.63;57.97;99629.88;4471517;32;33638;-71
2022/03/16 01:14:17;;;;;;;23.35;11.68;;;;;;;8.72;57.80;99629.03;4469669;32;33916;-71
2022/03/16 01:16:55;;;;;;;17.10;9.98;;;;;;;8.44;59.32;99628.13;4470582;32;35995;-71
2022/03/16 01:19:24;;;;;;;18.05;10.80;;;;;;;8.47;60.33;99631.56;4469769;32;34422;-71
2022/03/16 01:21:53;;;;;;;21.85;12.07;;;;;;;8.67;59.88;99641.13;4456686;32;34503;-71
2022/03/16 01:24:26;;;;;;;17.90;10.85;;;;;;;8.92;58.99;99644.63;4474040;32;33727;-71
2022/03/16 01:26:56;;;;;;;21.33;11.73;;;;;;;8.54;60.49;99651.50;4485806;32;35078;-72
2022/03/16 01:29:39;;;;;;;22.42;11.73;;;;;;;8.67;59.17;99651.53;4467251;32;35062;-71
2022/03/16 01:32:08;;;;;;;24.73;12.25;;;;;;;8.95;57.69;99661.94;4457556;32;33447;-71
2022/03/16 01:34:38;;;;;;;21.48;11.60;;;;;;;8.54;59.55;99667.06;4458062;32;34036;-71
2022/03/16 01:37:08;;;;;;;19.58;10.38;;;;;;;9.09;57.26;99671.47;4469835;32;34811;-71
2022/03/16 01:39:36;;;;;;;19.70;10.75;;;;;;;8.99;57.22;99671.47;4469746;32;35349;-71
2022/03/16 01:42:05;;;;;;;18.25;10.38;;;;;;;9.51;55.74;99674.03;4471991;32;33488;-71
2022/03/16 01:44:42;;;;;;;21.73;10.40;;;;;;;9.55;56.27;99681.00;4473774;32;33853;-71
2022/03/16 01:47:13;;;;;;;20.70;11.05;;;;;;;9.60;55.64;99674.06;4458980;32;33563;-71
2022/03/16 01:49:47;;;;;;;18.00;10.43;;;;;;;9.89;54.84;99665.31;4466059;32;35204;-71
2022/03/16 01:52:26;;;;;;;17.37;10.18;;;;;;;9.02;56.43;99667.16;4456784;32;33548;-71
2022/03/16 01:55:07;;;;;;;22.23;10.23;;;;;;;9.39;55.10;99664.56;4457175;32;33614;-71
2022/03/16 01:57:41;;;;;;;17.83;10.10;;;;;;;9.65;53.66;99655.84;4443056;32;33846;-72
2022/03/16 02:00:16;;;;;;;20.12;11.02;;;;;;;9.79;53.35;99648.00;4443474;32;34583;-75
2022/03/16 02:02:54;;;;;;;20.60;10.45;;;;;;;9.55;54.41;99644.59;4469869;32;33325;-71
2022/03/16 02:05:23;;;;;;;20.45;10.32;;;;;;;8.57;55.99;99650.63;4442793;32;32337;-71
2022/03/16 02:07:54;;;;;;;19.00;10.57;;;;;;;8.77;55.30;99653.28;4468807;32;35950;-72
2022/03/16 02:10:23;;;;;;;22.90;11.10;;;;;;;8.95;54.35;99661.94;4455538;32;35151;-72
2022/03/16 02:12:52;;;;;;;16.08;9.88;;;;;;;8.23;57.28;99655.69;4456194;32;33634;-72
2022/03/16 02:15:23;;;;;;;17.85;9.43;;;;;;;8.99;54.85;99648.97;4459711;32;34856;-72
2022/03/16 02:17:55;;;;;;;15.10;9.13;;;;;;;8.98;55.10;99646.34;4456482;32;35763;-72
2022/03/16 02:20:27;;;;;;;17.67;8.98;;;;;;;9.28;55.95;99633.38;4469640;32;34527;-72
2022/03/16 02:22:57;;;;;;;22.33;9.85;;;;;;;9.20;57.28;99637.69;4455939;32;33477;-72
2022/03/16 02:25:27;;;;;;;21.60;10.63;;;;;;;8.48;58.92;99630.69;4469519;32;34630;-72
2022/03/16 02:27:57;;;;;;;17.60;9.40;;;;;;;8.99;57.86;99628.19;4456051;32;34302;-72
2022/03/16 02:30:28;;;;;;;17.50;9.13;;;;;;;8.44;59.36;99621.19;4469173;32;35261;-72
2022/03/16 02:32:57;;;;;;;17.77;9.52;;;;;;;7.69;62.60;99621.72;4448010;32;32006;-72
2022/03/16 02:35:25;;;;;;;18.55;10.77;;;;;;;8.41;60.53;99613.34;4476503;32;34638;-72
2022/03/16 02:37:53;;;;;;;18.25;10.30;;;;;;;8.39;60.11;99611.63;4469382;32;35062;-71
2022/03/16 02:40:22;;;;;;;17.17;9.55;;;;;;;8.58;58.46;99594.38;4469202;32;35209;-72
2022/03/16 02:42:51;;;;;;;16.95;9.30;;;;;;;8.50;58.46;99592.62;4469683;32;33578;-72
2022/03/16 02:45:19;;;;;;;15.05;9.93;;;;;;;8.51;57.58;99589.19;4461498;32;34732;-72
2022/03/16 02:47:48;;;;;;;17.58;9.35;;;;;;;8.53;58.70;99586.59;4460688;32;35937;-72
2022/03/16 02:50:17;;;;;;;15.95;9.32;;;;;;;8.38;60.80;99579.59;4468457;32;35296;-72
2022/03/16 02:52:47;;;;;;;23.10;11.12;;;;;;;8.64;59.54;99573.63;4469635;32;33706;-72
2022/03/16 02:55:36;;;;;;;19.52;11.12;;;;;;;8.66;58.00;99583.13;4457841;32;33868;-72
2022/03/16 02:58:05;;;;;;;26.55;13.10;;;;;;;8.32;61.32;99582.19;4455349;32;35893;-72
2022/03/16 03:00:34;;;;;;;21.08;11.48;;;;;;;8.54;59.90;99571.03;4442398;32;34555;-72
2022/03/16 03:03:03;;;;;;;17.02;10.02;;;;;;;8.51;62.00;99571.03;4454872;32;33668;-71
2022/03/16 03:05:32;;;;;;;20.45;9.68;;;;;;;9.32;59.41;99569.28;4455361;32;34699;-71
2022/03/16 03:08:00;;;;;;;22.33;11.73;;;;;;;9.71;57.56;99564.81;4469174;32;34928;-72
2022/03/16 03:10:29;;;;;;;17.00;9.93;;;;;;;8.80;58.95;99570.16;4468725;32;35135;-71
2022/03/16 03:12:58;;;;;;;18.12;10.73;;;;;;;8.63;62.28;99569.28;4469559;32;33548;-72
2022/03/16 03:15:27;;;;;;;18.15;8.85;;;;;;;9.50;58.46;99568.34;4458189;32;33840;-70
2022/03/16 03:17:56;;;;;;;17.42;9.23;;;;;;;9.59;58.76;99560.53;4469000;32;35119;-71
2022/03/16 03:20:24;;;;;;;17.05;8.55;;;;;;;9.43;59.78;99561.44;4476983;32;33947;-72
2022/03/16 03:22:53;;;;;;;18.70;8.73;;;;;;;9.05;61.93;99550.25;4455221;32;33556;-72
2022/03/16 03:25:22;;;;;;;17.48;9.80;;;;;;;9.29;62.27;99548.47;4455647;32;34092;-72
2022/03/16 03:27:51;;;;;;;19.30;10.35;;;;;;;8.46;64.61;99536.41;4468847;32;35123;-72
2022/03/16 03:30:20;;;;;;;18.20;10.25;;;;;;;7.65;67.98;99521.47;4459180;32;34592;-72
2022/03/16 03:32:49;;;;;;;22.85;11.10;;;;;;;7.27;70.17;99517.00;4484660;32;33386;-72
2022/03/16 03:35:19;;;;;;;21.85;12.10;;;;;;;7.56;69.45;99505.91;4455029;32;34038;-72
2022/03/16 03:37:48;;;;;;;19.58;10.35;;;;;;;7.02;71.86;99506.50;4470360;32;35943;-72
2022/03/16 03:40:17;;;;;;;20.62;11.60;;;;;;;7.32;71.17;99493.69;4456482;32;34837;-72
2022/03/16 03:42:46;;;;;;;20.35;11.05;;;;;;;7.29;70.74;99486.78;4471225;32;33499;-72
2022/03/16 03:45:15;;;;;;;22.85;11.70;;;;;;;7.32;70.96;99471.25;4475234;32;34713;-72
2022/03/16 03:47:44;;;;;;;18.65;11.23;;;;;;;7.64;70.15;99467.94;4486912;32;35173;-71
2022/03/16 03:50:13;;;;;;;17.50;10.68;;;;;;;7.22;71.45;99474.66;4481474;32;34456;-72
2022/03/16 03:52:42;;;;;;;22.13;12.80;;;;;;;7.58;70.88;99475.69;4471162;32;33778;-72
2022/03/16 03:55:11;;;;;;;18.10;10.63;;;;;;;7.96;69.53;99462.81;4470516;32;33831;-72
2022/03/16 03:57:41;;;;;;;20.60;11.10;;;;;;;7.88;70.63;99448.97;4456554;32;35815;-72
2022/03/16 04:00:10;;;;;;;19.42;10.70;;;;;;;7.54;70.87;99450.63;4456689;32;33818;-71
2022/03/16 04:02:47;;;;;;;22.00;11.85;;;;;;;7.63;71.21;99455.81;4457141;32;33525;-71
2022/03/16 04:05:20;;;;;;;24.80;11.73;;;;;;;7.72;70.55;99445.47;4457140;32;33803;-72
2022/03/16 04:07:50;;;;;;;22.95;11.95;;;;;;;7.70;70.88;99452.37;4457272;32;35093;-72
2022/03/16 04:10:19;;;;;;;19.60;11.80;;;;;;;7.70;70.81;99446.34;4472660;32;33678;-72
2022/03/16 04:12:49;;;;;;;21.50;12.68;;;;;;;7.76;70.20;99439.47;4485728;32;34311;-71
2022/03/16 04:15:20;;;;;;;23.65;12.65;;;;;;;7.69;70.89;99445.47;4470929;32;33858;-72
2022/03/16 04:17:49;;;;;;;20.67;11.43;;;;;;;7.86;69.74;99442.91;4470690;32;34392;-70
2022/03/16 04:20:18;;;;;;;26.92;12.35;;;;;;;7.88;69.33;99433.41;4470756;32;34480;-72
2022/03/16 04:22:47;;;;;;;20.83;11.57;;;;;;;7.57;69.57;99435.94;4470412;32;34426;-70
2022/03/16 04:25:15;;;;;;;21.75;11.25;;;;;;;7.55;69.89;99436.78;4470598;32;33882;-72
2022/03/16 04:27:45;;;;;;;22.87;12.73;;;;;;;7.52;69.78;99440.25;4485550;32;34755;-70
2022/03/16 04:30:13;;;;;;;22.92;12.98;;;;;;;7.88;67.73;99443.78;4486222;32;34321;-72
2022/03/16 04:32:42;;;;;;;21.30;12.40;;;;;;;7.93;66.22;99443.81;4486331;32;34347;-72
2022/03/16 04:35:11;;;;;;;21.52;12.68;;;;;;;8.29;65.77;99436.91;4470676;32;33964;-72
2022/03/16 04:37:40;;;;;;;23.35;13.20;;;;;;;7.88;66.73;99429.97;4470590;32;34953;-72
2022/03/16 04:40:09;;;;;;;22.70;12.88;;;;;;;8.25;65.70;99430.84;4455656;32;34450;-71
2022/03/16 04:42:38;;;;;;;21.00;12.05;;;;;;;7.97;66.60;99437.75;4456897;32;34536;-72
2022/03/16 04:45:08;;;;;;;24.20;12.77;;;;;;;7.65;69.02;99437.69;4456285;32;34105;-72
2022/03/16 04:47:37;;;;;;;27.48;13.57;;;;;;;7.79;67.89;99436.84;4470668;32;35041;-72
2022/03/16 04:50:06;;;;;;;27.25;13.32;;;;;;;8.12;67.51;99435.19;4484489;32;35214;-72
2022/03/16 04:52:42;;;;;;;23.27;12.07;;;;;;;8.16;65.65;99433.44;4482404;32;33644;-72
2022/03/16 04:55:13;;;;;;;21.58;12.07;;;;;;;8.02;65.43;99437.75;4484882;32;33940;-72
2022/03/16 04:57:41;;;;;;;25.62;12.90;;;;;;;7.94;66.66;99455.88;4466312;32;35018;-72
2022/03/16 05:00:11;;;;;;;22.90;12.65;;;;;;;7.96;66.98;99452.44;4456360;32;34437;-72
2022/03/16 05:02:39;;;;;;;22.58;12.65;;;;;;;8.14;66.34;99455.94;4456516;32;32748;-72
2022/03/16 05:05:10;;;;;;;25.10;13.35;;;;;;;8.40;65.42;99471.53;4470074;32;34778;-72
2022/03/16 05:07:39;;;;;;;18.75;11.95;;;;;;;8.43;64.11;99474.13;4470609;32;34478;-72
2022/03/16 05:10:09;;;;;;;21.45;12.65;;;;;;;8.01;65.41;99474.91;4469809;32;33974;-72
2022/03/16 05:12:41;;;;;;;26.17;12.70;;;;;;;8.23;65.46;99476.69;4470494;32;33407;-72
2022/03/16 05:15:13;;;;;;;24.10;12.77;;;;;;;8.23;65.53;99483.63;4456176;32;33907;-72
2022/03/16 05:17:41;;;;;;;19.75;11.10;;;;;;;8.11;66.49;99489.63;4470603;32;36137;-72
2022/03/16 05:20:11;;;;;;;18.65;10.02;;;;;;;8.77;63.69;99479.31;4483459;32;35058;-72
2022/03/16 05:22:45;;;;;;;15.90;9.15;;;;;;;8.23;66.14;99487.06;4472586;32;33492;-72
2022/03/16 05:25:22;;;;;;;18.37;9.35;;;;;;;8.33;66.36;99485.34;4471129;32;33852;-72
2022/03/16 05:27:52;;;;;;;16.55;9.60;;;;;;;8.51;65.75;99485.38;4486257;32;35794;-72
2022/03/16 05:30:22;;;;;;;21.35;9.40;;;;;;;8.04;67.30;99488.75;4458274;32;34364;-74
2022/03/16 05:32:51;;;;;;;23.85;9.05;;;;;;;8.46;66.53;99486.25;4457528;32;34331;-72
2022/03/16 05:35:21;;;;;;;14.50;8.23;;;;;;;7.85;68.40;99481.78;4470136;32;33239;-72
2022/03/16 05:37:49;;;;;;;15.60;9.07;;;;;;;8.06;68.34;99471.47;4459720;32;35141;-71
2022/03/16 05:40:17;;;;;;;18.40;9.85;;;;;;;8.22;68.10;99468.91;4457292;32;35269;-72
2022/03/16 05:42:45;;;;;;;18.58;8.85;;;;;;;7.88;69.21;99476.63;4456222;32;34196;-75
2022/03/16 05:45:13;;;;;;;15.93;8.95;;;;;;;8.08;69.04;99477.53;4469498;32;34757;-76
2022/03/16 05:47:41;;;;;;;15.90;9.18;;;;;;;7.85;69.93;99476.63;4469476;32;35735;-74
2022/03/16 05:50:09;;;;;;;17.37;9.73;;;;;;;7.86;70.16;99468.00;4469604;32;34486;-75
2022/03/16 05:52:37;;;;;;;13.77;8.68;;;;;;;7.82;70.28;99474.00;4456008;32;33454;-72
2022/03/16 05:55:07;;;;;;;16.45;9.88;;;;;;;8.19;69.33;99476.66;4466587;32;34644;-75
2022/03/16 05:57:39;;;;;;;16.90;9.88;;;;;;;8.05;70.13;99477.53;4484759;32;35063;-73
2022/03/16 06:00:08;;;;;;;18.83;9.43;;;;;;;8.31;69.13;99492.25;4472806;32;34513;-76
2022/03/16 06:02:36;;;;;;;17.87;10.15;;;;;;;8.09;69.55;99494.81;4455898;32;33946;-73
2022/03/16 06:05:05;;;;;;;19.58;9.98;;;;;;;8.24;69.76;99501.78;4468797;32;33858;-72
2022/03/16 06:07:32;;;;;;;14.00;8.77;;;;;;;8.81;68.07;99519.13;4469866;32;35126;-74
2022/03/16 06:10:00;;;;;;;18.73;9.60;;;;;;;8.94;68.17;99514.78;4468875;32;34441;-71
2022/03/16 06:12:28;;;;;;;16.95;9.50;;;;;;;8.84;67.96;99525.19;4469864;32;33672;-76
2022/03/16 06:14:56;;;;;;;17.58;9.88;;;;;;;9.18;67.05;99524.28;4469312;32;34706;-71
2022/03/16 06:17:24;;;;;;;16.70;9.55;;;;;;;9.01;68.50;99516.50;4455614;32;35066;-75
2022/03/16 06:19:52;;;;;;;18.20;9.55;;;;;;;8.62;69.21;99526.03;4471986;32;35214;-72
2022/03/16 06:22:21;;;;;;;18.15;10.10;;;;;;;9.09;67.92;99527.75;4469203;32;34381;-72
2022/03/16 06:24:49;;;;;;;16.10;8.48;;;;;;;8.89;68.95;99523.44;4470728;32;34618;-71
2022/03/16 06:27:17;;;;;;;16.65;9.23;;;;;;;8.86;69.30;99518.25;4469572;32;35110;-70
2022/03/16 06:29:45;;;;;;;18.33;9.82;;;;;;;8.96;69.55;99524.28;4477482;32;35134;-71
2022/03/16 06:32:13;;;;;;;15.90;9.98;;;;;;;9.11;68.76;99526.00;4485215;32;34429;-72
2022/03/16 06:34:41;;;;;;;19.20;10.18;;;;;;;9.79;66.56;99515.38;4456933;32;33956;-75
2022/03/16 06:37:09;;;;;;;16.10;8.55;;;;;;;9.03;69.39;99519.94;4484759;32;34825;-73
2022/03/16 06:39:37;;;;;;;18.40;10.43;;;;;;;9.22;68.74;99515.59;4483909;32;35038;-75
2022/03/16 06:42:05;;;;;;;17.17;8.93;;;;;;;9.25;69.06;99513.84;4469186;32;33615;-73
2022/03/16 06:44:33;;;;;;;15.52;8.93;;;;;;;8.66;71.65;99525.16;4461749;32;33923;-73
2022/03/16 06:47:01;;;;;;;17.05;8.85;;;;;;;8.98;70.83;99521.69;4485215;32;35081;-73
2022/03/16 06:49:30;;;;;;;17.12;9.30;;;;;;;8.91;71.54;99526.91;4477218;32;34458;-72
2022/03/16 06:51:58;;;;;;;13.88;8.05;;;;;;;8.94;71.61;99531.22;4469203;32;33396;-73
2022/03/16 06:54:26;;;;;;;16.02;8.35;;;;;;;9.08;71.62;99539.84;4474695;32;33884;-72
2022/03/16 06:56:54;;;;;;;19.83;9.45;;;;;;;8.53;73.52;99535.53;4484887;32;34989;-73
2022/03/16 06:59:22;;;;;;;18.67;9.32;;;;;;;9.22;71.54;99534.63;4469193;32;34561;-74
2022/03/16 07:01:50;;;;;;;19.20;9.38;;;;;;;9.25;70.43;99534.63;4469036;32;33489;-72
2022/03/16 07:04:18;;;;;;;22.80;8.60;;;;;;;9.30;70.56;99538.09;4468594;32;33948;-74
2022/03/16 07:06:46;;;;;;;14.43;7.78;;;;;;;9.50;70.37;99544.97;4455051;32;35022;-73
2022/03/16 07:09:14;;;;;;;15.82;8.77;;;;;;;9.03;71.97;99540.72;4468466;32;35214;-73
2022/03/16 07:11:42;;;;;;;18.45;9.27;;;;;;;8.96;72.52;99539.88;4471057;32;34548;-72
2022/03/16 07:16:59;;;;;;;17.00;9.60;;;;;;;9.28;71.97;99545.03;4473610;32;35890;-73
2022/03/16 07:19:28;;;;;;;18.20;9.27;;;;;;;9.39;71.97;99539.81;4471005;32;35086;-73
2022/03/16 07:21:57;;;;;;;18.42;9.18;;;;;;;8.95;73.02;99548.53;4471040;32;33620;-73
2022/03/16 07:24:25;;;;;;;17.87;9.10;;;;;;;9.42;72.88;99558.00;4444449;32;33284;-73
2022/03/16 07:26:54;;;;;;;14.75;8.32;;;;;;;9.39;72.62;99555.41;4456559;32;35039;-74
2022/03/16 07:29:22;;;;;;;14.27;8.40;;;;;;;9.18;73.96;99548.50;4475194;32;34457;-74
2022/03/16 07:31:51;;;;;;;23.45;9.25;;;;;;;9.10;74.88;99545.91;4472833;32;33638;-73
2022/03/16 07:34:19;;;;;;;14.82;8.60;;;;;;;8.77;76.30;99544.22;4461465;32;33925;-74
2022/03/16 07:36:47;;;;;;;16.48;9.07;;;;;;;9.08;75.82;99541.59;4456781;32;35964;-73
2022/03/16 07:39:15;;;;;;;14.77;8.20;;;;;;;8.95;75.78;99538.16;4470713;32;34619;-73
2022/03/16 07:41:43;;;;;;;10.23;7.43;;;;;;;8.89;76.72;99540.72;4471068;32;34378;-72
2022/03/16 07:44:11;;;;;;;14.07;8.65;;;;;;;8.94;76.66;99535.56;4470740;32;34665;-72
2022/03/16 07:46:39;;;;;;;10.77;7.00;;;;;;;9.04;76.22;99545.94;4470913;32;35871;-72
2022/03/16 07:49:06;;;;;;;18.23;9.02;;;;;;;9.46;74.80;99548.44;4468075;32;34559;-72
2022/03/16 07:51:34;;;;;;;15.07;8.52;;;;;;;8.88;77.20;99547.66;4472559;32;33328;-72
2022/03/16 07:54:02;;;;;;;14.43;8.07;;;;;;;8.98;76.66;99548.50;4483941;32;33891;-72
2022/03/16 07:56:30;;;;;;;15.90;8.05;;;;;;;9.41;75.54;99556.25;4470788;32;35026;-72
2022/03/16 07:59:01;;;;;;;17.83;9.45;;;;;;;9.28;75.28;99560.63;4470278;32;34182;-72
2022/03/16 08:01:29;;;;;;;17.08;9.30;;;;;;;9.20;76.00;99558.91;4456868;32;33680;-74
2022/03/16 08:03:59;;;;;;;16.20;9.00;;;;;;;9.08;76.67;99560.63;4470532;32;34742;-75
2022/03/16 08:06:26;;;;;;;18.17;9.88;;;;;;;9.26;76.74;99554.53;4470231;32;35100;-71
2022/03/16 08:08:54;;;;;;;14.65;8.52;;;;;;;8.86;78.14;99557.19;4469633;32;34441;-70
2022/03/16 08:11:22;;;;;;;14.77;8.18;;;;;;;9.20;77.52;99566.69;4470615;32;33544;-75
2022/03/16 08:13:50;;;;;;;15.35;8.93;;;;;;;9.33;76.18;99572.72;4456720;32;33847;-74
2022/03/16 08:16:18;;;;;;;13.70;8.23;;;;;;;9.23;76.33;99570.16;4456987;32;34894;-75
2022/03/16 08:18:46;;;;;;;18.60;8.75;;;;;;;8.94;77.03;99577.09;4444332;32;35096;-74
2022/03/16 08:21:14;;;;;;;15.05;9.10;;;;;;;9.25;76.06;99570.16;4472205;32;33479;-73
2022/03/16 08:23:41;;;;;;;13.88;7.95;;;;;;;9.07;77.04;99573.63;4470663;32;34772;-73
2022/03/16 08:26:10;;;;;;;14.18;8.38;;;;;;;9.18;76.99;99582.28;4444742;32;34317;-73
2022/03/16 08:28:39;;;;;;;14.35;8.80;;;;;;;9.38;75.21;99577.03;4471234;32;35098;-74
2022/03/16 08:31:08;;;;;;;15.68;8.68;;;;;;;8.89;76.12;99577.09;4456618;32;33502;-74
2022/03/16 08:33:36;;;;;;;14.90;8.52;;;;;;;9.07;75.72;99591.81;4470767;32;33963;-73
2022/03/16 08:36:07;;;;;;;15.38;8.77;;;;;;;9.16;75.33;99589.22;4470661;32;36000;-74
2022/03/16 08:38:38;;;;;;;16.05;9.98;;;;;;;9.06;75.59;99597.87;4470739;32;34423;-74
2022/03/16 08:41:10;;;;;;;21.10;10.50;;;;;;;8.63;78.18;99592.66;4458222;32;34039;-74
2022/03/16 08:43:38;;;;;;;19.10;10.10;;;;;;;8.57;78.68;99595.25;4470692;32;34052;-74
2022/03/16 08:46:06;;;;;;;20.90;11.77;;;;;;;8.64;79.09;99607.38;4468823;32;34293;-74
2022/03/16 08:48:34;;;;;;;17.02;10.68;;;;;;;8.64;78.85;99599.59;4470555;32;34459;-73
2022/03/16 08:51:02;;;;;;;19.62;9.75;;;;;;;8.97;78.17;99608.28;4470212;32;33402;-73
2022/03/16 08:53:31;;;;;;;20.12;10.10;;;;;;;9.02;78.06;99607.41;4470570;32;33755;-73
2022/03/16 08:56:00;;;;;;;18.27;11.30;;;;;;;8.72;80.72;99605.66;4481995;32;35035;-73
2022/03/16 08:58:29;;;;;;;20.25;11.07;;;;;;;9.21;78.66;99615.19;4484950;32;34496;-73
2022/03/16 09:00:56;;;;;;;19.55;11.70;;;;;;;8.87;79.63;99622.97;4484937;32;33500;-74
2022/03/16 09:03:24;;;;;;;18.02;10.82;;;;;;;9.06;78.40;99619.50;4486275;32;33985;-74
2022/03/16 09:05:53;;;;;;;20.08;10.23;;;;;;;8.72;79.95;99624.69;4473907;32;35117;-74
2022/03/16 09:08:21;;;;;;;17.95;10.32;;;;;;;9.19;78.35;99620.37;4470693;32;35332;-74
2022/03/16 09:10:50;;;;;;;17.10;10.40;;;;;;;8.72;79.54;99623.84;4480284;32;33459;-74
2022/03/16 09:13:19;;;;;;;15.77;9.65;;;;;;;8.62;80.56;99622.94;4472655;32;34550;-74
2022/03/16 09:15:49;;;;;;;22.08;10.20;;;;;;;8.77;79.09;99627.31;4474843;32;34914;-73
2022/03/16 09:18:18;;;;;;;17.10;9.85;;;;;;;9.41;76.95;99625.56;4469901;32;34592;-73
2022/03/16 09:20:51;;;;;;;23.90;11.30;;;;;;;8.88;79.57;99625.56;4470498;32;33553;-75
2022/03/16 09:23:19;;;;;;;14.15;8.15;;;;;;;8.96;78.67;99622.97;4470501;32;33853;-74
2022/03/16 09:25:47;;;;;;;16.12;9.75;;;;;;;9.02;75.94;99632.53;4469701;32;36151;-75
2022/03/16 09:28:15;;;;;;;15.88;9.13;;;;;;;8.39;77.94;99630.66;4469711;32;35245;-73
2022/03/16 09:30:42;;;;;;;15.32;7.62;;;;;;;8.61;76.61;99641.09;4468096;32;149395;-72
2022/03/16 09:33:10;;;;;;;18.33;8.90;;;;;;;8.61;76.85;99647.19;4482113;32;33948;-74
2022/03/16 09:35:38;;;;;;;16.27;8.60;;;;;;;8.81;75.68;99654.16;4476609;32;35798;-75
2022/03/16 09:38:07;;;;;;;16.98;8.65;;;;;;;8.25;77.94;99650.50;4469544;32;34434;-74
2022/03/16 09:40:36;;;;;;;15.82;8.90;;;;;;;8.55;78.35;99657.53;4478145;32;34500;-74
2022/03/16 09:43:09;;;;;;;18.70;10.00;;;;;;;8.11;80.15;99655.63;4472487;32;34717;-72
2022/03/16 09:45:53;;;;;;;16.10;10.00;;;;;;;8.52;79.63;99658.41;4462576;32;35101;-73
2022/03/16 09:48:23;;;;;;;19.20;10.15;;;;;;;8.23;81.75;99662.59;4456612;32;35229;-72
2022/03/16 09:50:53;;;;;;;19.48;10.40;;;;;;;8.88;79.01;99671.47;4469841;32;34134;-73
2022/03/16 09:53:26;;;;;;;20.70;10.93;;;;;;;8.57;80.81;99675.72;4470265;32;33244;-72
2022/03/16 09:55:55;;;;;;;16.20;9.50;;;;;;;7.89;83.94;99685.78;4479773;32;35028;-74
2022/03/16 09:58:23;;;;;;;20.37;10.00;;;;;;;8.07;84.37;99678.09;4480262;32;34456;-73
2022/03/16 10:00:54;;;;;;;21.20;11.15;;;;;;;8.62;82.80;99679.19;4455873;32;33476;-74
2022/03/16 10:03:25;;;;;;;19.23;10.13;;;;;;;8.11;82.90;99690.19;4470484;32;34802;-74
2022/03/16 10:05:55;;;;;;;23.87;11.73;;;;;;;8.63;82.07;99680.91;4469657;32;35045;-74
2022/03/16 10:08:33;;;;;;;19.20;10.05;;;;;;;8.18;83.84;99690.25;4473669;32;35491;-74
2022/03/16 10:13:59;;;;;;;21.52;10.02;;;;;;;7.72;84.87;99691.72;4484423;32;33871;-72
2022/03/16 10:17:43;;;;;;;15.73;8.35;;;;;;;7.70;86.18;99690.84;4471935;32;34905;-73
2022/03/16 10:19:15;;;;;;;21.75;11.35;;;;;;;8.00;85.79;99699.66;4477963;32;34597;-73
2022/03/16 10:21:58;;;;;;;21.23;11.57;;;;;;;7.70;86.83;99695.16;4443183;32;31975;-74
2022/03/16 10:24:30;;;;;;;19.20;11.43;;;;;;;7.60;87.00;99702.00;4469544;32;33924;-73
2022/03/16 10:26:59;;;;;;;21.42;10.18;;;;;;;7.54;88.02;99700.25;4456750;32;35748;-72
2022/03/16 10:29:31;;;;;;;13.45;8.65;;;;;;;7.82;85.80;99709.91;4465213;32;34422;-73
2022/03/16 10:32:04;;;;;;;19.77;10.07;;;;;;;8.16;83.52;99700.62;4472023;32;33601;-74
2022/03/16 10:34:32;;;;;;;18.45;9.85;;;;;;;7.78;84.77;99703.84;4473667;32;33933;-74
2022/03/16 10:37:02;;;;;;;20.58;10.25;;;;;;;7.89;84.13;99712.56;4469563;32;35238;-73
2022/03/16 10:39:33;;;;;;;17.45;9.75;;;;;;;8.11;83.32;99713.56;4455109;32;33020;-74
2022/03/16 10:48:14;;;;;;;21.45;10.48;;;;;;;8.21;82.94;99703.25;4485240;32;34991;-73
2022/03/16 10:50:43;;;;;;;18.65;10.77;;;;;;;7.63;85.73;99706.34;4471548;32;34506;-74
2022/03/16 10:53:14;;;;;;;17.55;9.50;;;;;;;7.81;85.09;99713.38;4456991;32;33579;-73
2022/03/16 10:55:43;;;;;;;19.27;10.55;;;;;;;7.95;83.62;99712.59;4457670;32;33976;-74
2022/03/16 10:58:12;;;;;;;19.85;10.00;;;;;;;7.95;84.61;99714.34;4456991;32;33422;-73
2022/03/16 11:00:41;;;;;;;15.35;9.52;;;;;;;8.23;81.20;99711.91;4457446;32;34400;-74
2022/03/16 11:03:18;;;;;;;15.82;9.65;;;;;;;8.09;81.81;99719.59;4471037;32;33412;-74
2022/03/16 11:05:46;;;;;;;15.05;8.60;;;;;;;7.92;83.30;99722.09;4458091;32;33850;-73
2022/03/16 11:08:15;;;;;;;12.23;7.60;;;;;;;8.16;81.74;99722.22;4471112;32;35041;-73
2022/03/16 11:10:43;;;;;;;13.35;8.30;;;;;;;8.26;79.75;99725.75;4457509;32;34372;-74
2022/03/16 11:13:30;;;;;;;16.65;9.98;;;;;;;7.94;81.28;99725.53;4456978;32;34259;-73
2022/03/16 11:16:00;;;;;;;15.85;8.55;;;;;;;7.64;83.51;99723.62;4471389;32;33766;-73
2022/03/16 11:18:28;;;;;;;15.88;8.90;;;;;;;7.90;83.06;99735.03;4473535;32;34948;-74
2022/03/16 11:21:04;;;;;;;14.70;8.85;;;;;;;7.72;83.25;99729.75;4444477;32;33839;-73
2022/03/16 11:27:03;;;;;;;19.85;8.95;;;;;;;8.01;79.95;99731.66;4459537;32;33830;-74
2022/03/16 11:29:54;;;;;;;16.80;10.05;;;;;;;8.03;80.54;99738.59;4432736;32;35108;-74
2022/03/16 11:32:23;;;;;;;16.33;9.45;;;;;;;7.70;80.43;99741.81;4456530;32;34624;-74
2022/03/16 11:34:56;;;;;;;17.40;10.40;;;;;;;7.78;80.49;99737.53;4467502;32;33628;-74
2022/03/16 11:37:42;;;;;;;13.23;8.68;;;;;;;7.59;81.14;99736.56;4454288;32;34653;-74
2022/03/16 11:40:13;;;;;;;15.83;8.83;;;;;;;7.62;81.24;99743.47;4455327;32;35126;-74
2022/03/16 11:43:05;;;;;;;16.40;9.35;;;;;;;7.56;81.22;99741.72;4455626;32;34568;-74
2022/03/16 11:45:37;;;;;;;20.48;8.88;;;;;;;7.48;80.97;99745.97;4455698;32;33339;-74
2022/03/16 11:48:34;;;;;;;18.10;8.65;;;;;;;7.14;83.19;99743.06;4442040;32;33857;-74
2022/03/16 11:51:09;;;;;;;17.15;9.57;;;;;;;7.27;83.18;99742.34;4455623;32;35064;-74
2022/03/16 11:53:46;;;;;;;16.42;10.02;;;;;;;7.29;83.28;99751.00;4455100;32;34463;-75
2022/03/16 11:56:20;;;;;;;16.05;9.07;;;;;;;7.22;82.96;99762.16;4454322;32;33410;-74
2022/03/16 11:58:49;;;;;;;18.40;9.68;;;;;;;7.27;81.81;99752.72;4454031;32;34779;-74